createdAt,value
2022-12-18T00:01:17.964Z,103115.44
2022-12-18T00:03:45.607Z,103118.34
2022-12-18T00:06:13.103Z,103114.50
2022-12-18T00:08:39.682Z,103100.66
2022-12-18T00:11:11.436Z,103097.38
2022-12-18T00:13:38.458Z,103085.59
2022-12-18T00:16:07.940Z,103091.25
2022-12-18T00:18:34.683Z,103090.41
2022-12-18T00:21:03.955Z,103095.91
2022-12-18T00:23:31.384Z,103089.19
2022-12-18T00:26:05.542Z,103098.63
2022-12-18T00:28:32.437Z,103100.69
2022-12-18T00:31:05.671Z,103111.09
2022-12-18T00:33:32.658Z,103106.75
2022-12-18T00:36:09.218Z,103096.47
2022-12-18T00:38:36.020Z,103095.66
2022-12-18T00:41:03.086Z,103096.59
2022-12-18T00:43:29.864Z,103084.56
2022-12-18T00:45:56.594Z,103093.19
2022-12-18T00:48:23.745Z,103094.41
2022-12-18T00:50:50.980Z,103091.00
2022-12-18T00:53:17.645Z,103093.59
2022-12-18T00:55:45.295Z,103103.03
2022-12-18T00:58:13.928Z,103094.41
2022-12-18T01:00:40.851Z,103094.41
2022-12-18T01:03:07.859Z,103091.81
2022-12-18T01:05:34.912Z,103088.53
2022-12-18T01:08:01.553Z,103078.25
2022-12-18T01:10:28.300Z,103075.09
2022-12-18T01:12:54.811Z,103076.88
2022-12-18T01:15:21.543Z,103079.63
2022-12-18T01:17:48.430Z,103078.81
2022-12-18T01:20:15.005Z,103084.97
2022-12-18T01:22:41.726Z,103090.19
2022-12-18T01:25:09.297Z,103095.53
2022-12-18T01:27:35.912Z,103098.13
2022-12-18T01:30:02.553Z,103102.66
2022-12-18T01:32:31.670Z,103113.06
2022-12-18T01:34:58.370Z,103102.78
2022-12-18T01:37:25.374Z,103103.59
2022-12-18T01:39:55.409Z,103101.00
2022-12-18T01:42:22.632Z,103103.59
2022-12-18T01:45:03.502Z,103101.00
2022-12-18T01:47:39.067Z,103109.09
2022-12-18T01:50:11.792Z,103114.59
2022-12-18T01:52:39.743Z,103112.13
2022-12-18T01:55:08.189Z,103106.22
2022-12-18T01:57:35.972Z,103113.34
2022-12-18T02:00:07.659Z,103108.41
2022-12-18T02:02:34.307Z,103108.81
2022-12-18T02:05:01.661Z,103114.16
2022-12-18T02:07:31.268Z,103122.13
2022-12-18T02:10:16.135Z,103125.78
2022-12-18T02:13:01.914Z,103124.28
2022-12-18T02:15:42.383Z,103115.81
2022-12-18T02:18:20.258Z,103120.44
2022-12-18T02:20:59.769Z,103119.78
2022-12-18T02:23:53.672Z,103113.06
2022-12-18T02:26:30.852Z,103115.13
2022-12-18T02:29:06.118Z,103119.47
2022-12-18T02:31:41.198Z,103124.00
2022-12-18T02:34:10.940Z,103115.66
2022-12-18T02:36:40.463Z,103126.19
2022-12-18T02:39:10.590Z,103113.31
2022-12-18T02:41:37.750Z,103113.44
2022-12-18T02:44:11.667Z,103108.53
2022-12-18T02:46:46.081Z,103105.25
2022-12-18T02:49:38.079Z,103099.47
2022-12-18T02:52:18.162Z,103081.56
2022-12-18T02:55:01.660Z,103099.88
2022-12-18T02:57:49.889Z,103094.00
2022-12-18T03:00:25.230Z,103091.53
2022-12-18T03:02:57.732Z,103096.88
2022-12-18T03:05:32.586Z,103093.59
2022-12-18T03:08:05.654Z,103083.31
2022-12-18T03:10:36.425Z,103078.25
2022-12-18T03:13:15.158Z,103080.28
2022-12-18T03:15:47.195Z,103077.84
2022-12-18T03:18:31.188Z,103079.88
2022-12-18T03:21:01.890Z,103077.41
2022-12-18T03:23:33.546Z,103074.94
2022-12-18T03:26:07.413Z,103076.84
2022-12-18T03:28:39.758Z,103072.88
2022-12-18T03:31:10.233Z,103072.47
2022-12-18T03:33:46.587Z,103066.44
2022-12-18T03:36:13.599Z,103058.91
2022-12-18T03:38:40.206Z,103061.50
2022-12-18T03:41:15.759Z,103053.84
2022-12-18T03:43:50.212Z,103057.41
2022-12-18T03:46:27.222Z,103053.16
2022-12-18T03:49:00.995Z,103049.72
2022-12-18T03:51:38.266Z,103044.81
2022-12-18T03:54:07.466Z,103046.59
2022-12-18T03:56:41.317Z,103047.53
2022-12-18T03:59:11.036Z,103051.09
2022-12-18T04:01:41.985Z,103045.91
2022-12-18T04:04:11.029Z,103039.06
2022-12-18T04:06:39.630Z,103042.63
2022-12-18T04:09:06.670Z,103043.69
2022-12-18T04:11:33.311Z,103036.84
2022-12-18T04:14:01.946Z,103035.19
2022-12-18T04:16:31.351Z,103031.78
2022-12-18T04:18:58.177Z,103023.31
2022-12-18T04:21:24.897Z,103013.88
2022-12-18T04:23:51.426Z,103020.03
2022-12-18T04:26:18.423Z,103020.13
2022-12-18T04:28:45.074Z,103013.31
2022-12-18T04:31:11.740Z,103006.47
2022-12-18T04:33:38.865Z,103011.66
2022-12-18T04:36:06.257Z,103010.97
2022-12-18T04:38:33.465Z,103013.72
2022-12-18T04:41:00.053Z,103012.06
2022-12-18T04:43:26.634Z,103020.00
2022-12-18T04:45:53.301Z,103025.06
2022-12-18T04:48:21.193Z,103037.22
2022-12-18T04:50:48.991Z,103029.56
2022-12-18T04:53:15.487Z,103039.13
2022-12-18T04:55:42.002Z,103040.09
2022-12-18T04:58:08.573Z,103041.84
2022-12-18T05:00:36.489Z,103049.91
2022-12-18T05:03:04.111Z,103051.69
2022-12-18T05:05:30.979Z,103054.97
2022-12-18T05:07:57.919Z,103056.88
2022-12-18T05:10:24.871Z,103063.84
2022-12-18T05:13:01.164Z,103065.63
2022-12-18T05:15:30.258Z,103063.84
2022-12-18T05:17:58.026Z,103065.63
2022-12-18T05:20:25.669Z,103074.22
2022-12-18T05:22:53.392Z,103068.34
2022-12-18T05:25:20.810Z,103072.72
2022-12-18T05:27:47.470Z,103072.84
2022-12-18T05:30:14.454Z,103077.34
2022-12-18T05:32:41.549Z,103091.00
2022-12-18T05:35:10.180Z,103088.56
2022-12-18T05:37:41.183Z,103090.47
2022-12-18T05:40:10.566Z,103093.88
2022-12-18T05:42:37.202Z,103071.31
2022-12-18T05:45:04.267Z,103073.09
2022-12-18T05:47:30.862Z,103065.31
2022-12-18T05:49:57.732Z,103062.84
2022-12-18T05:52:24.825Z,103066.25
2022-12-18T05:54:51.396Z,103056.97
2022-12-18T05:57:18.054Z,103056.97
2022-12-18T05:59:44.644Z,103057.09
2022-12-18T06:02:11.267Z,103052.84
2022-12-18T06:04:37.943Z,103047.78
2022-12-18T06:07:04.613Z,103050.50
2022-12-18T06:09:31.264Z,103051.47
2022-12-18T06:11:57.833Z,103054.06
2022-12-18T06:14:24.465Z,103043.00
2022-12-18T06:16:54.260Z,103035.31
2022-12-18T06:19:21.070Z,103036.13
2022-12-18T06:21:47.995Z,103034.50
2022-12-18T06:24:14.712Z,103032.84
2022-12-18T06:26:41.229Z,103030.53
2022-12-18T06:29:07.954Z,103023.81
2022-12-18T06:31:34.593Z,103020.41
2022-12-18T06:34:03.995Z,103014.53
2022-12-18T06:36:30.695Z,103012.88
2022-12-18T06:38:57.506Z,103017.25
2022-12-18T06:41:24.402Z,103012.19
2022-12-18T06:43:52.250Z,103014.91
2022-12-18T06:46:21.512Z,103011.75
2022-12-18T06:48:50.130Z,103003.13
2022-12-18T06:51:18.888Z,103002.31
2022-12-18T06:53:45.815Z,102994.81
2022-12-18T06:56:12.465Z,102996.56
2022-12-18T06:58:39.976Z,103001.06
2022-12-18T07:01:09.142Z,102992.44
2022-12-18T07:03:36.030Z,102982.34
2022-12-18T07:06:03.239Z,102982.47
2022-12-18T07:08:31.174Z,102977.41
2022-12-18T07:10:57.922Z,102975.78
2022-12-18T07:13:24.612Z,102975.88
2022-12-18T07:15:51.226Z,102983.69
2022-12-18T07:18:17.862Z,102974.94
2022-12-18T07:20:45.219Z,102973.41
2022-12-18T07:23:12.559Z,102972.88
2022-12-18T07:25:39.489Z,102973.69
2022-12-18T07:28:06.241Z,102970.28
2022-12-18T07:30:32.779Z,102972.03
2022-12-18T07:32:59.360Z,102970.41
2022-12-18T07:35:25.918Z,102956.34
2022-12-18T07:37:52.426Z,102950.06
2022-12-18T07:40:19.335Z,102950.53
2022-12-18T07:42:46.071Z,102950.69
2022-12-18T07:45:12.588Z,102951.81
2022-12-18T07:47:39.153Z,102936.53
2022-12-18T07:50:06.622Z,102934.22
2022-12-18T07:52:33.259Z,102927.69
2022-12-18T07:55:02.359Z,102925.38
2022-12-18T08:00:16.123Z,102918.16
2022-12-18T08:02:42.905Z,102920.22
2022-12-18T08:05:09.793Z,102920.50
2022-12-18T08:07:36.490Z,102923.25
2022-12-18T08:10:03.220Z,102905.34
2022-12-18T08:12:30.634Z,102896.06
2022-12-18T08:14:57.173Z,102893.84
2022-12-18T08:17:23.779Z,102897.69
2022-12-18T08:19:50.548Z,102903.03
2022-12-18T08:22:17.146Z,102912.56
2022-12-18T08:24:44.042Z,102904.53
2022-12-18T08:27:28.910Z,102912.72
2022-12-18T08:29:56.875Z,102926.94
2022-12-18T08:32:23.908Z,102931.59
2022-12-18T08:34:50.599Z,102934.31
2022-12-18T08:37:17.119Z,102928.38
2022-12-18T08:39:43.651Z,102926.19
2022-12-18T08:42:28.801Z,102931.78
2022-12-18T08:44:55.409Z,102925.22
2022-12-18T08:47:21.973Z,102909.97
2022-12-18T08:49:48.461Z,102919.13
2022-12-18T08:52:15.015Z,102923.94
2022-12-18T08:54:41.584Z,102927.72
2022-12-18T08:57:08.151Z,102923.88
2022-12-18T08:59:34.727Z,102917.56
2022-12-18T09:02:01.447Z,102927.41
2022-12-18T09:04:28.147Z,102933.16
2022-12-18T09:06:54.666Z,102940.38
2022-12-18T09:09:21.183Z,102927.78
2022-12-18T09:11:47.790Z,102915.94
2022-12-18T09:14:14.443Z,102922.50
2022-12-18T09:16:41.020Z,102921.09
2022-12-18T09:19:07.846Z,102920.53
2022-12-18T09:21:37.448Z,102914.72
2022-12-18T09:24:05.253Z,102915.94
2022-12-18T09:26:36.115Z,102918.78
2022-12-18T09:29:03.721Z,102919.94
2022-12-18T09:31:30.267Z,102915.28
2022-12-18T09:33:57.721Z,102914.81
2022-12-18T09:36:24.397Z,102910.94
2022-12-18T09:38:51.488Z,102902.84
2022-12-18T09:41:48.296Z,102892.63
2022-12-18T09:44:26.041Z,102889.28
2022-12-18T09:47:02.148Z,102886.91
2022-12-18T09:49:33.381Z,102888.38
2022-12-18T09:52:05.986Z,102885.16
2022-12-18T09:54:44.484Z,102876.75
2022-12-18T09:57:24.328Z,102867.50
2022-12-18T10:00:04.270Z,102870.59
2022-12-18T10:02:33.172Z,102870.97
2022-12-18T10:05:15.237Z,102860.88
2022-12-18T10:08:00.632Z,102867.94
2022-12-18T10:10:30.209Z,102863.25
2022-12-18T10:13:05.713Z,102865.25
2022-12-18T10:15:46.322Z,102865.44
2022-12-18T10:18:21.599Z,102850.28
2022-12-18T10:20:55.660Z,102852.09
2022-12-18T10:23:42.420Z,102861.13
2022-12-18T10:26:15.867Z,102852.97
2022-12-18T10:28:45.116Z,102857.59
2022-12-18T10:31:24.330Z,102852.69
2022-12-18T10:33:52.384Z,102851.06
2022-12-18T10:36:19.268Z,102839.66
2022-12-18T10:38:45.990Z,102824.50
2022-12-18T10:41:18.633Z,102837.75
2022-12-18T10:43:45.858Z,102845.25
2022-12-18T10:46:12.433Z,102836.78
2022-12-18T10:48:48.961Z,102826.81
2022-12-18T10:51:31.491Z,102820.16
2022-12-18T10:54:02.819Z,102811.97
2022-12-18T10:56:32.712Z,102816.06
2022-12-18T10:59:05.958Z,102811.34
2022-12-18T11:01:53.537Z,102807.28
2022-12-18T11:04:25.726Z,102812.00
2022-12-18T11:07:01.146Z,102802.22
2022-12-18T11:09:32.841Z,102797.47
2022-12-18T11:12:02.316Z,102800.75
2022-12-18T11:14:33.319Z,102781.31
2022-12-18T11:19:57.706Z,102790.09
2022-12-18T11:22:28.916Z,102775.56
2022-12-18T11:27:56.824Z,102761.69
2022-12-18T11:30:29.319Z,102762.19
2022-12-18T11:33:18.633Z,102758.25
2022-12-18T11:35:51.084Z,102762.16
2022-12-18T11:38:27.870Z,102771.94
2022-12-18T11:41:01.525Z,102767.34
2022-12-18T11:43:34.509Z,102767.03
2022-12-18T11:46:13.500Z,102770.16
2022-12-18T11:48:55.219Z,102762.59
2022-12-18T11:51:29.735Z,102757.06
2022-12-18T11:53:56.275Z,102759.31
2022-12-18T11:56:45.160Z,102758.81
2022-12-18T11:59:38.159Z,102745.41
2022-12-18T12:02:23.430Z,102731.97
2022-12-18T12:05:20.917Z,102727.38
2022-12-18T12:07:50.593Z,102725.41
2022-12-18T12:10:32.356Z,102713.34
2022-12-18T12:13:05.622Z,102704.97
2022-12-18T12:15:32.180Z,102699.38
2022-12-18T12:18:23.924Z,102704.44
2022-12-18T12:20:54.275Z,102702.47
2022-12-18T12:23:29.899Z,102698.88
2022-12-18T12:26:02.270Z,102696.91
2022-12-18T12:28:58.465Z,102689.50
2022-12-18T12:31:52.801Z,102696.22
2022-12-18T12:34:19.569Z,102695.06
2022-12-18T12:37:10.232Z,102687.84
2022-12-18T12:39:40.640Z,102675.56
2022-12-18T12:42:36.996Z,102677.84
2022-12-18T12:45:07.835Z,102671.25
2022-12-18T12:47:39.626Z,102664.09
2022-12-18T12:50:13.530Z,102665.38
2022-12-18T12:52:55.629Z,102652.94
2022-12-18T12:55:25.374Z,102657.03
2022-12-18T12:58:32.540Z,102650.00
2022-12-18T13:01:05.092Z,102644.41
2022-12-18T13:03:51.302Z,102648.50
2022-12-18T13:06:43.011Z,102641.09
2022-12-18T13:09:11.590Z,102642.56
2022-12-18T13:12:00.614Z,102646.97
2022-12-18T13:14:29.771Z,102638.78
2022-12-18T13:17:21.582Z,102642.66
2022-12-18T13:19:53.589Z,102646.09
2022-12-18T13:22:30.347Z,102643.47
2022-12-18T13:24:58.542Z,102645.94
2022-12-18T13:28:04.503Z,102646.56
2022-12-18T13:30:34.072Z,102638.72
2022-12-18T13:33:18.264Z,102625.25
2022-12-18T13:35:47.621Z,102621.81
2022-12-18T13:38:32.948Z,102622.63
2022-12-18T13:41:01.241Z,102613.78
2022-12-18T13:43:37.027Z,102611.19
2022-12-18T13:46:22.489Z,102613.78
2022-12-18T13:48:54.960Z,102600.50
2022-12-18T13:51:23.258Z,102591.66
2022-12-18T13:53:55.719Z,102589.69
2022-12-18T13:56:25.433Z,102587.72
2022-12-18T13:59:13.373Z,102586.25
2022-12-18T14:01:48.985Z,102580.19
2022-12-18T14:04:26.359Z,102577.56
2022-12-18T14:07:04.925Z,102572.16
2022-12-18T14:09:40.447Z,102572.16
2022-12-18T14:12:26.203Z,102572.16
2022-12-18T14:14:55.611Z,102569.38
2022-12-18T14:17:24.053Z,102566.59
2022-12-18T14:19:52.279Z,102548.25
2022-12-18T14:22:31.152Z,102549.06
2022-12-18T14:25:14.408Z,102558.34
2022-12-18T14:28:07.510Z,102544.44
2022-12-18T14:30:40.902Z,102543.44
2022-12-18T14:33:12.549Z,102538.41
2022-12-18T14:35:42.242Z,102528.38
2022-12-18T14:38:21.430Z,102533.44
2022-12-18T14:40:48.236Z,102531.63
2022-12-18T14:43:14.813Z,102530.63
2022-12-18T14:45:45.505Z,102530.19
2022-12-18T14:48:12.567Z,102529.19
2022-12-18T14:50:40.784Z,102522.16
2022-12-18T14:53:19.524Z,102513.47
2022-12-18T14:55:49.855Z,102506.59
2022-12-18T14:58:18.489Z,102511.84
2022-12-18T15:00:45.210Z,102511.03
2022-12-18T15:03:19.466Z,102512.66
2022-12-18T15:05:46.394Z,102517.53
2022-12-18T15:08:32.486Z,102513.28
2022-12-18T15:10:59.602Z,102507.22
2022-12-18T15:13:26.293Z,102505.41
2022-12-18T15:15:55.678Z,102503.63
2022-12-18T15:18:31.204Z,102496.75
2022-12-18T15:21:00.219Z,102496.75
2022-12-18T15:23:47.359Z,102502.63
2022-12-18T15:26:17.172Z,102491.16
2022-12-18T15:28:49.793Z,102499.38
2022-12-18T15:31:18.112Z,102497.38
2022-12-18T15:33:53.969Z,102494.31
2022-12-18T15:36:26.379Z,102498.75
2022-12-18T15:38:55.169Z,102500.38
2022-12-18T15:41:25.895Z,102496.13
2022-12-18T15:43:54.193Z,102501.03
2022-12-18T15:46:25.368Z,102505.25
2022-12-18T15:48:59.768Z,102501.81
2022-12-18T15:51:30.444Z,102482.84
2022-12-18T15:53:59.506Z,102481.22
2022-12-18T15:56:44.542Z,102476.59
2022-12-18T15:59:13.549Z,102480.06
2022-12-18T16:01:42.795Z,102463.72
2022-12-18T16:04:13.035Z,102468.13
2022-12-18T16:07:05.333Z,102472.38
2022-12-18T16:09:26.622Z,102462.06
2022-12-18T16:11:53.499Z,102452.41
2022-12-18T16:14:27.616Z,102454.59
2022-12-18T16:16:56.907Z,102456.66
2022-12-18T16:19:24.451Z,102443.56
2022-12-18T16:21:53.312Z,102440.31
2022-12-18T16:24:25.161Z,102429.47
2022-12-18T16:26:52.888Z,102434.69
2022-12-18T16:29:20.399Z,102426.66
2022-12-18T16:31:50.627Z,102414.56
2022-12-18T16:34:29.181Z,102415.56
2022-12-18T16:37:03.112Z,102402.63
2022-12-18T16:39:32.907Z,102408.31
2022-12-18T16:42:00.025Z,102397.69
2022-12-18T16:44:28.681Z,102385.56
2022-12-18T16:46:55.598Z,102388.19
2022-12-18T16:49:22.429Z,102397.03
2022-12-18T16:51:49.505Z,102394.03
2022-12-18T16:54:19.171Z,102396.88
2022-12-18T16:56:49.837Z,102390.44
2022-12-18T16:59:16.678Z,102388.44
2022-12-18T17:01:44.639Z,102386.00
2022-12-18T17:04:11.512Z,102381.41
2022-12-18T17:06:43.783Z,102385.38
2022-12-18T17:09:15.530Z,102385.03
2022-12-18T17:11:42.735Z,102378.97
2022-12-18T17:14:12.939Z,102384.03
2022-12-18T17:16:40.228Z,102390.91
2022-12-18T17:19:12.133Z,102393.31
2022-12-18T17:21:42.144Z,102391.53
2022-12-18T17:24:09.377Z,102391.31
2022-12-18T17:26:36.609Z,102398.81
2022-12-18T17:29:03.867Z,102390.97
2022-12-18T17:31:31.050Z,102384.38
2022-12-18T17:33:58.622Z,102380.50
2022-12-18T17:36:28.979Z,102382.09
2022-12-18T17:38:58.129Z,102386.16
2022-12-18T17:41:25.832Z,102384.53
2022-12-18T17:43:53.782Z,102383.75
2022-12-18T17:46:20.553Z,102388.34
2022-12-18T17:48:47.576Z,102388.41
2022-12-18T17:51:16.185Z,102394.00
2022-12-18T17:53:43.446Z,102394.22
2022-12-18T17:56:13.915Z,102392.22
2022-12-18T17:58:40.732Z,102377.31
2022-12-18T18:01:08.294Z,102372.88
2022-12-18T18:03:38.218Z,102374.69
2022-12-18T18:06:05.351Z,102378.28
2022-12-18T18:08:34.710Z,102387.78
2022-12-18T18:11:31.997Z,102381.53
2022-12-18T18:14:02.225Z,102385.00
2022-12-18T18:16:30.431Z,102393.03
2022-12-18T18:18:58.777Z,102385.97
2022-12-18T18:21:25.635Z,102389.03
2022-12-18T18:23:52.736Z,102386.44
2022-12-18T18:26:20.091Z,102378.00
2022-12-18T18:28:46.724Z,102382.44
2022-12-18T18:31:13.379Z,102387.69
2022-12-18T18:33:40.522Z,102383.25
2022-12-18T18:36:10.513Z,102381.81
2022-12-18T18:38:38.981Z,102371.31
2022-12-18T18:41:06.112Z,102377.03
2022-12-18T18:43:33.074Z,102381.88
2022-12-18T18:46:01.812Z,102376.63
2022-12-18T18:48:33.936Z,102375.44
2022-12-18T18:51:08.455Z,102372.19
2022-12-18T18:53:40.008Z,102365.59
2022-12-18T18:58:56.482Z,102360.78
2022-12-18T19:01:24.241Z,102359.59
2022-12-18T19:03:51.476Z,102363.66
2022-12-18T19:06:20.964Z,102356.19
2022-12-18T19:08:48.432Z,102361.41
2022-12-18T19:11:36.477Z,102352.34
2022-12-18T19:14:05.848Z,102346.13
2022-12-18T19:16:34.096Z,102346.56
2022-12-18T19:19:02.312Z,102350.81
2022-12-18T19:21:33.873Z,102359.28
2022-12-18T19:24:01.677Z,102355.47
2022-12-18T19:26:28.815Z,102350.88
2022-12-18T19:29:07.744Z,102351.50
2022-12-18T19:31:36.326Z,102344.81
2022-12-18T19:34:05.017Z,102349.50
2022-12-18T19:36:32.886Z,102351.94
2022-12-18T19:39:01.691Z,102357.19
2022-12-18T19:41:37.680Z,102351.13
2022-12-18T19:44:07.748Z,102359.78
2022-12-18T19:46:35.911Z,102364.66
2022-12-18T19:49:03.020Z,102359.84
2022-12-18T19:51:31.673Z,102360.47
2022-12-18T19:54:01.724Z,102355.84
2022-12-18T19:56:31.514Z,102358.28
2022-12-18T19:58:58.470Z,102358.72
2022-12-18T20:01:26.573Z,102354.88
2022-12-18T20:03:55.890Z,102344.56
2022-12-18T20:06:30.318Z,102344.56
2022-12-18T20:09:00.677Z,102344.28
2022-12-18T20:11:28.878Z,102353.00
2022-12-18T20:13:55.545Z,102350.38
2022-12-18T20:16:22.087Z,102341.88
2022-12-18T20:18:49.252Z,102349.94
2022-12-18T20:21:16.103Z,102345.06
2022-12-18T20:23:43.638Z,102340.00
2022-12-18T20:26:10.986Z,102344.63
2022-12-18T20:28:37.864Z,102350.06
2022-12-18T20:31:10.506Z,102357.13
2022-12-18T20:33:42.030Z,102355.47
2022-12-18T20:36:13.725Z,102350.63
2022-12-18T20:38:41.732Z,102355.88
2022-12-18T20:41:12.589Z,102348.41
2022-12-18T20:43:39.775Z,102338.28
2022-12-18T20:46:16.191Z,102326.16
2022-12-18T20:48:44.709Z,102325.53
2022-12-18T20:51:15.246Z,102325.34
2022-12-18T20:53:42.597Z,102331.59
2022-12-18T20:56:12.622Z,102323.91
2022-12-18T20:58:39.219Z,102318.50
2022-12-18T21:01:07.731Z,102320.09
2022-12-18T21:03:34.494Z,102312.00
2022-12-18T21:06:01.026Z,102307.31
2022-12-18T21:08:27.528Z,102303.44
2022-12-18T21:10:55.487Z,102291.47
2022-12-18T21:13:22.622Z,102287.59
2022-12-18T21:15:49.463Z,102288.53
2022-12-18T21:18:16.260Z,102280.41
2022-12-18T21:20:43.094Z,102289.66
2022-12-18T21:23:15.679Z,102286.13
2022-12-18T21:25:42.828Z,102279.00
2022-12-18T21:28:09.415Z,102271.72
2022-12-18T21:30:36.101Z,102268.84
2022-12-18T21:33:02.779Z,102267.59
2022-12-18T21:35:29.374Z,102265.72
2022-12-18T21:37:58.850Z,102274.13
2022-12-18T21:40:25.526Z,102270.25
2022-12-18T21:43:10.541Z,102266.19
2022-12-18T21:45:41.709Z,102272.78
2022-12-18T21:48:08.289Z,102271.34
2022-12-18T21:50:34.809Z,102269.28
2022-12-18T21:53:01.301Z,102260.78
2022-12-18T21:55:27.901Z,102254.94
2022-12-18T21:57:54.396Z,102258.56
2022-12-18T22:00:21.035Z,102236.38
2022-12-18T22:03:01.114Z,102218.84
2022-12-18T22:05:35.938Z,102234.72
2022-12-18T22:08:02.480Z,102230.50
2022-12-18T22:10:29.036Z,102222.03
2022-12-18T22:12:55.487Z,102218.56
2022-12-18T22:15:22.192Z,102220.38
2022-12-18T22:17:50.450Z,102219.56
2022-12-18T22:20:20.482Z,102209.28
2022-12-18T22:22:48.260Z,102204.06
2022-12-18T22:25:15.002Z,102205.69
2022-12-18T22:27:41.504Z,102191.78
2022-12-18T22:30:08.632Z,102180.69
2022-12-18T22:32:36.366Z,102174.66
2022-12-18T22:35:09.537Z,102166.81
2022-12-18T22:37:40.840Z,102154.72
2022-12-18T22:40:08.634Z,102149.28
2022-12-18T22:42:35.455Z,102143.25
2022-12-18T22:45:02.005Z,102132.78
2022-12-18T22:47:30.405Z,102136.03
2022-12-18T22:49:57.694Z,102135.41
2022-12-18T22:52:25.065Z,102134.22
2022-12-18T22:54:53.559Z,102130.97
2022-12-18T22:57:20.589Z,102133.41
2022-12-18T22:59:47.104Z,102125.56
2022-12-18T23:02:13.691Z,102137.84
2022-12-18T23:04:40.357Z,102132.22
2022-12-18T23:07:06.960Z,102129.00
2022-12-18T23:09:33.485Z,102112.31
2022-12-18T23:12:00.352Z,102095.81
2022-12-18T23:14:28.062Z,102098.84
2022-12-18T23:16:54.711Z,102081.72
2022-12-18T23:19:23.632Z,102074.66
2022-12-18T23:21:50.795Z,102077.09
2022-12-18T23:24:17.361Z,102096.03
2022-12-18T23:26:43.968Z,102094.22
2022-12-18T23:29:10.607Z,102095.69
2022-12-18T23:31:39.180Z,102086.38
2022-12-18T23:34:07.137Z,102088.81
2022-12-18T23:36:45.616Z,102083.41
2022-12-18T23:39:29.124Z,102079.59
2022-12-18T23:41:58.126Z,102060.66
2022-12-18T23:44:25.022Z,102048.38
2022-12-18T23:46:51.574Z,102042.78
2022-12-18T23:49:18.136Z,102042.78
2022-12-18T23:51:45.168Z,102033.94
2022-12-18T23:54:11.751Z,102040.16
2022-12-18T23:56:38.238Z,102048.03
2022-12-18T23:59:05.048Z,102050.63
